createdAt,value
2022-10-05T00:00:25.794Z,0.00
2022-10-05T00:01:25.863Z,0.00
2022-10-05T00:02:25.735Z,0.00
2022-10-05T00:03:25.654Z,0.00
2022-10-05T00:04:25.663Z,0.00
2022-10-05T00:05:25.766Z,0.00
2022-10-05T00:06:25.669Z,0.00
2022-10-05T00:07:25.654Z,0.00
2022-10-05T00:08:25.635Z,0.00
2022-10-05T00:09:25.625Z,0.00
2022-10-05T00:10:25.622Z,0.00
2022-10-05T00:11:25.636Z,0.00
2022-10-05T00:12:25.744Z,0.00
2022-10-05T00:13:25.731Z,0.00
2022-10-05T00:14:25.643Z,0.00
2022-10-05T00:15:25.734Z,0.00
2022-10-05T00:16:25.819Z,0.00
2022-10-05T00:17:25.751Z,0.00
2022-10-05T00:18:25.650Z,0.00
2022-10-05T00:19:25.629Z,0.00
2022-10-05T00:20:25.643Z,0.00
2022-10-05T00:21:25.900Z,0.00
2022-10-05T00:22:25.629Z,0.00
2022-10-05T00:23:25.809Z,0.00
2022-10-05T00:24:25.505Z,0.00
2022-10-05T00:25:25.506Z,0.00
2022-10-05T00:26:25.564Z,0.00
2022-10-05T00:27:25.555Z,0.00
2022-10-05T00:28:25.763Z,0.00
2022-10-05T00:29:25.490Z,0.00
2022-10-05T00:30:25.533Z,0.00
2022-10-05T00:31:25.627Z,0.00
2022-10-05T00:32:25.534Z,0.00
2022-10-05T00:33:25.520Z,0.00
2022-10-05T00:34:25.602Z,0.00
2022-10-05T00:35:25.585Z,0.00
2022-10-05T00:36:26.546Z,0.00
2022-10-05T00:37:25.784Z,0.00
2022-10-05T00:38:25.659Z,0.00
2022-10-05T00:39:25.493Z,0.00
2022-10-05T00:40:25.496Z,0.00
2022-10-05T00:41:25.497Z,0.00
2022-10-05T00:42:25.447Z,0.00
2022-10-05T00:43:25.460Z,0.00
2022-10-05T00:44:25.393Z,0.00
2022-10-05T00:45:25.567Z,0.00
2022-10-05T00:46:25.493Z,0.00
2022-10-05T00:47:25.378Z,0.00
2022-10-05T00:48:25.442Z,0.00
2022-10-05T00:49:25.469Z,0.00
2022-10-05T00:50:25.441Z,0.00
2022-10-05T00:51:25.417Z,0.00
2022-10-05T00:52:25.498Z,0.00
2022-10-05T00:53:25.394Z,0.00
2022-10-05T00:54:25.385Z,0.00
2022-10-05T00:55:25.383Z,0.00
2022-10-05T00:56:25.363Z,0.00
2022-10-05T00:57:25.368Z,0.00
2022-10-05T00:58:25.359Z,0.00
2022-10-05T00:59:25.395Z,0.00
2022-10-05T01:00:25.381Z,0.00
2022-10-05T01:01:25.530Z,0.00
2022-10-05T01:02:25.466Z,0.00
2022-10-05T01:03:25.263Z,0.00
2022-10-05T01:04:25.208Z,0.00
2022-10-05T01:05:25.283Z,0.00
2022-10-05T01:06:25.306Z,0.00
2022-10-05T01:07:25.390Z,0.00
2022-10-05T01:08:25.283Z,0.00
2022-10-05T01:09:25.260Z,0.00
2022-10-05T01:10:25.248Z,0.00
2022-10-05T01:11:25.251Z,0.00
2022-10-05T01:12:25.329Z,0.00
2022-10-05T01:13:25.223Z,0.00
2022-10-05T01:14:26.138Z,0.00
2022-10-05T01:15:25.212Z,0.00
2022-10-05T01:16:25.268Z,0.00
2022-10-05T01:17:25.209Z,0.00
2022-10-05T01:18:25.257Z,0.00
2022-10-05T01:19:25.113Z,0.00
2022-10-05T01:20:25.085Z,0.00
2022-10-05T01:21:26.136Z,0.00
2022-10-05T01:22:25.090Z,0.00
2022-10-05T01:23:25.184Z,0.00
2022-10-05T01:24:25.207Z,0.00
2022-10-05T01:25:25.530Z,0.00
2022-10-05T01:26:25.161Z,0.00
2022-10-05T01:27:25.170Z,0.00
2022-10-05T01:28:25.556Z,0.00
2022-10-05T01:29:25.132Z,0.00
2022-10-05T01:30:25.124Z,0.00
2022-10-05T01:31:25.198Z,0.00
2022-10-05T01:32:25.107Z,0.00
2022-10-05T01:33:25.361Z,0.00
2022-10-05T01:34:25.068Z,0.00
2022-10-05T01:35:25.015Z,0.00
2022-10-05T01:36:25.073Z,0.00
2022-10-05T01:37:24.978Z,0.00
2022-10-05T01:38:24.982Z,0.00
2022-10-05T01:39:25.025Z,0.00
2022-10-05T01:40:24.991Z,0.00
2022-10-05T01:41:24.962Z,0.00
2022-10-05T01:42:25.044Z,0.00
2022-10-05T01:43:25.072Z,0.00
2022-10-05T01:44:25.049Z,0.00
2022-10-05T01:45:25.110Z,0.00
2022-10-05T01:46:24.983Z,0.00
2022-10-05T01:47:24.994Z,0.00
2022-10-05T01:48:24.993Z,0.00
2022-10-05T01:49:24.982Z,0.00
2022-10-05T01:50:25.024Z,0.00
2022-10-05T01:51:24.961Z,0.00
2022-10-05T01:52:24.965Z,0.00
2022-10-05T01:53:24.867Z,0.00
2022-10-05T01:54:24.845Z,0.00
2022-10-05T01:55:24.974Z,0.00
2022-10-05T01:56:24.844Z,0.00
2022-10-05T01:57:24.833Z,0.00
2022-10-05T01:58:24.822Z,0.00
2022-10-05T01:59:24.816Z,0.00
2022-10-05T02:00:24.812Z,0.00
2022-10-05T02:01:24.923Z,0.00
2022-10-05T02:02:24.923Z,0.00
2022-10-05T02:03:24.880Z,0.00
2022-10-05T02:04:56.395Z,0.00
2022-10-05T02:05:26.804Z,0.00
2022-10-05T02:06:25.006Z,0.00
2022-10-05T02:07:24.856Z,0.00
2022-10-05T02:08:24.952Z,0.00
2022-10-05T02:09:24.825Z,0.00
2022-10-05T02:10:24.837Z,0.00
2022-10-05T02:11:24.891Z,0.00
2022-10-05T02:12:25.692Z,0.00
2022-10-05T02:13:24.813Z,0.00
2022-10-05T02:14:24.723Z,0.00
2022-10-05T02:15:24.682Z,0.00
2022-10-05T02:16:24.746Z,0.00
2022-10-05T02:17:24.941Z,0.00
2022-10-05T02:18:24.764Z,0.00
2022-10-05T02:19:24.727Z,0.00
2022-10-05T02:20:25.726Z,0.00
2022-10-05T02:21:24.779Z,0.00
2022-10-05T02:22:24.773Z,0.00
2022-10-05T02:23:24.790Z,0.00
2022-10-05T02:24:24.746Z,0.00
2022-10-05T02:25:24.720Z,0.00
2022-10-05T02:26:24.790Z,0.00
2022-10-05T02:27:24.768Z,0.00
2022-10-05T02:28:24.789Z,0.00
2022-10-05T02:29:24.601Z,0.00
2022-10-05T02:30:24.596Z,0.00
2022-10-05T02:31:24.781Z,0.00
2022-10-05T02:32:24.592Z,0.00
2022-10-05T02:33:24.571Z,0.00
2022-10-05T02:34:24.769Z,0.00
2022-10-05T02:35:24.575Z,0.00
2022-10-05T02:36:24.701Z,0.00
2022-10-05T02:37:24.986Z,0.00
2022-10-05T02:38:24.616Z,0.00
2022-10-05T02:39:24.638Z,0.00
2022-10-05T02:40:24.622Z,0.00
2022-10-05T02:41:24.658Z,0.00
2022-10-05T02:42:24.571Z,0.00
2022-10-05T02:43:24.644Z,0.00
2022-10-05T02:44:24.558Z,0.00
2022-10-05T02:45:24.628Z,0.00
2022-10-05T02:46:24.666Z,0.00
2022-10-05T02:47:24.564Z,0.00
2022-10-05T02:48:24.469Z,0.00
2022-10-05T02:49:24.437Z,0.00
2022-10-05T02:50:24.635Z,0.00
2022-10-05T02:51:24.430Z,0.00
2022-10-05T02:52:24.425Z,0.00
2022-10-05T02:53:24.570Z,0.00
2022-10-05T02:54:24.512Z,0.00
2022-10-05T02:55:24.505Z,0.00
2022-10-05T02:56:24.432Z,0.00
2022-10-05T02:57:24.460Z,0.00
2022-10-05T02:58:24.454Z,0.00
2022-10-05T02:59:24.520Z,0.00
2022-10-05T03:00:24.989Z,0.00
2022-10-05T03:01:24.513Z,0.00
2022-10-05T03:02:24.490Z,0.00
2022-10-05T03:03:24.403Z,0.00
2022-10-05T03:04:24.313Z,0.00
2022-10-05T03:05:24.322Z,0.00
2022-10-05T03:06:24.422Z,0.00
2022-10-05T03:07:24.468Z,0.00
2022-10-05T03:08:24.375Z,0.00
2022-10-05T03:09:24.501Z,0.00
2022-10-05T03:10:24.376Z,0.00
2022-10-05T03:11:24.479Z,0.00
2022-10-05T03:12:24.415Z,0.00
2022-10-05T03:13:24.442Z,0.00
2022-10-05T03:14:24.349Z,0.00
2022-10-05T03:15:24.363Z,0.00
2022-10-05T03:16:24.376Z,0.00
2022-10-05T03:17:24.250Z,0.00
2022-10-05T03:18:27.417Z,0.00
2022-10-05T03:19:26.225Z,0.00
2022-10-05T03:20:24.268Z,0.00
2022-10-05T03:21:24.231Z,0.00
2022-10-05T03:22:24.209Z,0.00
2022-10-05T03:23:24.213Z,0.00
2022-10-05T03:24:24.180Z,0.00
2022-10-05T03:25:24.181Z,0.00
2022-10-05T03:26:24.304Z,0.00
2022-10-05T03:27:24.242Z,0.00
2022-10-05T03:28:24.430Z,0.00
2022-10-05T03:29:24.233Z,0.00
2022-10-05T03:30:24.251Z,0.00
2022-10-05T03:31:24.267Z,0.00
2022-10-05T03:32:25.183Z,0.00
2022-10-05T03:33:24.211Z,0.00
2022-10-05T03:34:24.273Z,0.00
2022-10-05T03:35:24.197Z,0.00
2022-10-05T03:36:24.112Z,0.00
2022-10-05T03:37:24.107Z,0.00
2022-10-05T03:38:24.140Z,0.00
2022-10-05T03:39:24.184Z,0.00
2022-10-05T03:40:24.116Z,0.00
2022-10-05T03:41:24.060Z,0.00
2022-10-05T03:42:24.084Z,0.00
2022-10-05T03:43:31.357Z,0.00
2022-10-05T03:44:24.075Z,0.00
2022-10-05T03:45:24.110Z,0.00
2022-10-05T03:46:24.207Z,0.00
2022-10-05T03:47:24.129Z,0.00
2022-10-05T03:48:24.076Z,0.00
2022-10-05T03:49:24.134Z,0.00
2022-10-05T03:50:24.139Z,0.00
2022-10-05T03:51:24.099Z,0.00
2022-10-05T03:52:24.079Z,0.00
2022-10-05T03:53:24.091Z,0.00
2022-10-05T03:54:24.154Z,0.00
2022-10-05T03:55:24.113Z,0.00
2022-10-05T03:56:23.976Z,0.00
2022-10-05T03:57:25.104Z,0.00
2022-10-05T03:58:23.963Z,0.00
2022-10-05T03:59:25.243Z,0.00
2022-10-05T04:00:24.006Z,0.00
2022-10-05T04:01:23.995Z,0.00
2022-10-05T04:02:23.998Z,0.00
2022-10-05T04:03:23.932Z,0.00
2022-10-05T04:04:23.981Z,0.00
2022-10-05T04:05:23.973Z,0.00
2022-10-05T04:06:24.026Z,0.00
2022-10-05T04:07:23.984Z,0.00
2022-10-05T04:08:23.953Z,0.00
2022-10-05T04:09:23.977Z,0.00
2022-10-05T04:10:24.021Z,0.00
2022-10-05T04:11:23.945Z,0.00
2022-10-05T04:12:24.003Z,0.00
2022-10-05T04:13:23.903Z,0.00
2022-10-05T04:14:23.843Z,0.00
2022-10-05T04:15:23.817Z,0.00
2022-10-05T04:16:23.855Z,0.00
2022-10-05T04:17:23.853Z,0.00
2022-10-05T04:18:23.839Z,0.00
2022-10-05T04:19:23.776Z,0.00
2022-10-05T04:20:23.796Z,0.00
2022-10-05T04:21:24.183Z,0.00
2022-10-05T04:22:24.861Z,0.00
2022-10-05T04:23:23.795Z,0.00
2022-10-05T04:24:23.810Z,0.00
2022-10-05T04:25:23.922Z,0.00
2022-10-05T04:26:23.845Z,0.00
2022-10-05T04:27:23.820Z,0.00
2022-10-05T04:28:26.999Z,0.00
2022-10-05T04:29:24.843Z,0.00
2022-10-05T04:30:23.807Z,0.00
2022-10-05T04:31:23.933Z,0.00
2022-10-05T04:32:23.825Z,0.00
2022-10-05T04:33:23.834Z,0.00
2022-10-05T04:34:24.004Z,0.00
2022-10-05T04:35:23.681Z,0.00
2022-10-05T04:36:23.687Z,0.00
2022-10-05T04:37:23.784Z,0.00
2022-10-05T04:38:23.646Z,0.00
2022-10-05T04:39:24.673Z,0.00
2022-10-05T04:40:23.660Z,0.00
2022-10-05T04:41:23.621Z,0.00
2022-10-05T04:42:23.770Z,0.00
2022-10-05T04:43:23.791Z,0.00
2022-10-05T04:44:24.923Z,0.00
2022-10-05T04:45:23.776Z,0.00
2022-10-05T04:46:23.782Z,0.00
2022-10-05T04:47:23.758Z,0.00
2022-10-05T04:48:23.729Z,0.00
2022-10-05T04:49:24.193Z,0.00
2022-10-05T04:50:23.716Z,0.00
2022-10-05T04:51:23.704Z,0.00
2022-10-05T04:52:23.563Z,0.00
2022-10-05T04:53:23.574Z,0.00
2022-10-05T04:54:24.171Z,0.00
2022-10-05T04:55:23.577Z,0.00
2022-10-05T04:56:23.573Z,0.00
2022-10-05T04:57:23.601Z,0.00
2022-10-05T04:58:23.632Z,0.00
2022-10-05T04:59:23.666Z,0.00
2022-10-05T05:00:23.709Z,0.00
2022-10-05T05:01:23.658Z,0.00
2022-10-05T05:02:23.716Z,0.00
2022-10-05T05:03:23.603Z,0.00
2022-10-05T05:04:23.644Z,0.00
2022-10-05T05:05:23.568Z,0.00
2022-10-05T05:06:23.502Z,0.00
2022-10-05T05:07:23.438Z,0.00
2022-10-05T05:08:23.541Z,0.00
2022-10-05T05:09:23.457Z,0.00
2022-10-05T05:10:23.479Z,0.00
2022-10-05T05:11:24.713Z,0.00
2022-10-05T05:12:24.439Z,0.00
2022-10-05T05:13:23.443Z,0.00
2022-10-05T05:14:23.522Z,0.00
2022-10-05T05:15:23.486Z,0.00
2022-10-05T05:16:23.628Z,0.00
2022-10-05T05:17:23.446Z,0.00
2022-10-05T05:18:23.464Z,0.00
2022-10-05T05:19:23.439Z,0.00
2022-10-05T05:20:23.432Z,0.00
2022-10-05T05:21:23.477Z,0.00
2022-10-05T05:22:23.502Z,0.00
2022-10-05T05:23:24.212Z,0.00
2022-10-05T05:24:23.412Z,0.00
2022-10-05T05:25:23.318Z,0.00
2022-10-05T05:26:23.307Z,5.62
2022-10-05T05:27:23.399Z,5.62
2022-10-05T05:28:23.319Z,5.62
2022-10-05T05:29:23.300Z,5.62
2022-10-05T05:30:23.370Z,5.62
2022-10-05T05:31:23.380Z,5.62
2022-10-05T05:32:23.276Z,5.62
2022-10-05T05:33:23.439Z,11.25
2022-10-05T05:34:23.365Z,11.25
2022-10-05T05:35:23.358Z,11.25
2022-10-05T05:36:23.691Z,11.25
2022-10-05T05:37:24.316Z,11.25
2022-10-05T05:38:23.336Z,16.88
2022-10-05T05:39:23.301Z,16.88
2022-10-05T05:40:23.402Z,16.88
2022-10-05T05:41:23.208Z,16.88
2022-10-05T05:42:23.250Z,16.88
2022-10-05T05:43:23.177Z,22.50
2022-10-05T05:44:24.351Z,22.50
2022-10-05T05:45:23.147Z,22.50
2022-10-05T05:46:34.175Z,22.50
2022-10-05T05:47:25.236Z,22.50
2022-10-05T05:48:23.151Z,22.50
2022-10-05T05:49:23.665Z,22.50
2022-10-05T05:50:23.219Z,22.50
2022-10-05T05:51:23.202Z,22.50
2022-10-05T05:52:23.235Z,22.50
2022-10-05T05:53:23.198Z,28.12
2022-10-05T05:54:23.182Z,28.12
2022-10-05T05:55:27.632Z,22.50
2022-10-05T05:56:25.116Z,28.12
2022-10-05T05:57:23.169Z,28.12
2022-10-05T05:58:23.172Z,28.12
2022-10-05T05:59:23.145Z,28.12
2022-10-05T06:00:23.088Z,28.12
2022-10-05T06:01:32.562Z,28.12
2022-10-05T06:02:25.140Z,28.12
2022-10-05T06:03:23.138Z,22.50
2022-10-05T06:04:23.042Z,22.50
2022-10-05T06:05:23.031Z,16.88
2022-10-05T06:06:23.097Z,16.88
2022-10-05T06:07:25.688Z,16.88
2022-10-05T06:08:25.036Z,16.88
2022-10-05T06:09:23.038Z,22.50
2022-10-05T06:10:23.091Z,22.50
2022-10-05T06:11:23.097Z,16.88
2022-10-05T06:12:23.077Z,16.88
2022-10-05T06:13:23.121Z,16.88
2022-10-05T06:14:23.058Z,16.88
2022-10-05T06:15:23.061Z,22.50
2022-10-05T06:16:23.096Z,16.88
2022-10-05T06:17:24.068Z,22.50
2022-10-05T06:18:23.016Z,22.50
2022-10-05T06:19:23.031Z,22.50
2022-10-05T06:20:23.037Z,22.50
2022-10-05T06:21:23.001Z,28.12
2022-10-05T06:22:22.968Z,33.75
2022-10-05T06:23:22.907Z,33.75
2022-10-05T06:24:23.024Z,33.75
2022-10-05T06:25:22.949Z,33.75
2022-10-05T06:26:22.979Z,39.38
2022-10-05T06:27:22.950Z,45.00
2022-10-05T06:28:24.109Z,45.00
2022-10-05T06:29:22.959Z,50.62
2022-10-05T06:30:22.966Z,56.25
2022-10-05T06:31:22.960Z,56.25
2022-10-05T06:32:22.994Z,50.62
2022-10-05T06:33:22.987Z,56.25
2022-10-05T06:34:22.920Z,61.88
2022-10-05T06:35:22.919Z,67.50
2022-10-05T06:36:23.273Z,84.38
2022-10-05T06:37:22.844Z,84.38
2022-10-05T06:38:22.788Z,90.00
2022-10-05T06:39:22.923Z,90.00
2022-10-05T06:40:22.868Z,101.25
2022-10-05T06:41:22.864Z,106.88
2022-10-05T06:42:22.861Z,112.50
2022-10-05T06:43:22.927Z,118.12
2022-10-05T06:44:22.906Z,118.12
2022-10-05T06:45:22.850Z,118.12
2022-10-05T06:46:22.954Z,118.12
2022-10-05T06:47:22.818Z,118.12
2022-10-05T06:48:22.810Z,118.12
2022-10-05T06:49:22.828Z,118.12
2022-10-05T06:50:23.236Z,118.12
2022-10-05T06:51:22.820Z,123.75
2022-10-05T06:52:22.733Z,123.75
2022-10-05T06:53:22.727Z,123.75
2022-10-05T06:54:22.661Z,123.75
2022-10-05T06:55:22.913Z,118.12
2022-10-05T06:56:22.714Z,123.75
2022-10-05T06:57:22.767Z,123.75
2022-10-05T06:58:22.768Z,123.75
2022-10-05T06:59:22.755Z,118.12
2022-10-05T07:00:22.766Z,123.75
2022-10-05T07:01:22.822Z,129.38
2022-10-05T07:02:22.808Z,129.38
2022-10-05T07:03:22.712Z,123.75
2022-10-05T07:04:22.751Z,123.75
2022-10-05T07:05:22.842Z,118.12
2022-10-05T07:06:22.781Z,118.12
2022-10-05T07:07:22.720Z,123.75
2022-10-05T07:08:22.611Z,135.00
2022-10-05T07:09:22.602Z,146.25
2022-10-05T07:10:22.676Z,146.25
2022-10-05T07:11:22.621Z,140.62
2022-10-05T07:12:22.642Z,129.38
2022-10-05T07:13:22.714Z,118.12
2022-10-05T07:14:22.672Z,112.50
2022-10-05T07:15:22.662Z,118.12
2022-10-05T07:16:22.720Z,118.12
2022-10-05T07:17:22.628Z,135.00
2022-10-05T07:18:22.680Z,146.25
2022-10-05T07:19:22.589Z,151.88
2022-10-05T07:20:22.624Z,151.88
2022-10-05T07:21:22.574Z,146.25
2022-10-05T07:22:22.573Z,140.62
2022-10-05T07:23:22.604Z,140.62
2022-10-05T07:24:22.536Z,135.00
2022-10-05T07:25:22.584Z,140.62
2022-10-05T07:26:22.523Z,129.38
2022-10-05T07:27:22.446Z,123.75
2022-10-05T07:28:22.631Z,123.75
2022-10-05T07:29:22.541Z,112.50
2022-10-05T07:30:22.521Z,106.88
2022-10-05T07:31:22.598Z,118.12
2022-10-05T07:32:22.527Z,146.25
2022-10-05T07:33:22.542Z,157.50
2022-10-05T07:34:22.516Z,163.12
2022-10-05T07:35:22.505Z,163.12
2022-10-05T07:36:22.481Z,157.50
2022-10-05T07:37:22.548Z,151.88
2022-10-05T07:38:22.535Z,146.25
2022-10-05T07:39:23.536Z,140.62
2022-10-05T07:40:22.911Z,129.38
2022-10-05T07:41:22.496Z,123.75
2022-10-05T07:42:22.430Z,112.50
2022-10-05T07:43:22.367Z,112.50
2022-10-05T07:44:22.351Z,112.50
2022-10-05T07:45:22.339Z,106.88
2022-10-05T07:46:22.434Z,90.00
2022-10-05T07:47:22.319Z,90.00
2022-10-05T07:48:22.347Z,95.62
2022-10-05T07:49:22.341Z,112.50
2022-10-05T07:50:22.588Z,118.12
2022-10-05T07:51:22.367Z,118.12
2022-10-05T07:52:22.324Z,118.12
2022-10-05T07:53:22.370Z,129.38
2022-10-05T07:54:22.344Z,135.00
2022-10-05T07:55:22.363Z,146.25
2022-10-05T07:56:22.385Z,157.50
2022-10-05T07:57:22.295Z,180.00
2022-10-05T07:58:22.428Z,191.25
2022-10-05T07:59:22.305Z,196.88
2022-10-05T08:00:22.495Z,202.50
2022-10-05T08:01:22.352Z,202.50
2022-10-05T08:02:22.531Z,202.50
2022-10-05T08:03:22.351Z,196.88
2022-10-05T08:04:22.272Z,196.88
2022-10-05T08:05:22.285Z,163.12
2022-10-05T08:06:22.146Z,157.50
2022-10-05T08:08:22.195Z,157.50
2022-10-05T08:09:22.248Z,157.50
2022-10-05T08:10:23.202Z,163.12
2022-10-05T08:11:22.210Z,174.38
2022-10-05T08:12:22.329Z,174.38
2022-10-05T08:13:22.209Z,180.00
2022-10-05T08:14:22.200Z,185.62
2022-10-05T08:15:22.188Z,174.38
2022-10-05T08:16:22.260Z,180.00
2022-10-05T08:17:25.485Z,185.62
2022-10-05T08:18:23.219Z,191.25
2022-10-05T08:19:22.203Z,196.88
2022-10-05T08:20:22.173Z,191.25
2022-10-05T08:21:22.053Z,191.25
2022-10-05T08:22:22.066Z,180.00
2022-10-05T08:23:22.028Z,168.75
2022-10-05T08:24:22.255Z,168.75
2022-10-05T08:25:22.144Z,168.75
2022-10-05T08:26:22.163Z,168.75
2022-10-05T08:27:22.189Z,168.75
2022-10-05T08:28:22.182Z,174.38
2022-10-05T08:29:22.228Z,180.00
2022-10-05T08:30:22.092Z,191.25
2022-10-05T08:31:22.156Z,196.88
2022-10-05T08:32:22.066Z,196.88
2022-10-05T08:33:22.060Z,191.25
2022-10-05T08:34:22.052Z,202.50
2022-10-05T08:35:22.100Z,202.50
2022-10-05T08:36:22.036Z,191.25
2022-10-05T08:37:22.031Z,185.62
2022-10-05T08:38:21.988Z,208.12
2022-10-05T08:39:21.965Z,202.50
2022-10-05T08:40:21.946Z,213.75
2022-10-05T08:41:21.982Z,236.25
2022-10-05T08:42:21.944Z,219.38
2022-10-05T08:43:21.949Z,219.38
2022-10-05T08:44:21.929Z,225.00
2022-10-05T08:45:21.923Z,236.25
2022-10-05T08:46:22.004Z,225.00
2022-10-05T08:47:21.986Z,213.75
2022-10-05T08:48:21.975Z,230.62
2022-10-05T08:49:21.941Z,241.88
2022-10-05T08:50:21.943Z,236.25
2022-10-05T08:51:22.179Z,241.88
2022-10-05T08:52:22.016Z,236.25
2022-10-05T08:53:21.981Z,219.38
2022-10-05T08:54:21.907Z,219.38
2022-10-05T08:55:21.894Z,230.62
2022-10-05T08:56:26.367Z,225.00
2022-10-05T08:57:24.055Z,236.25
2022-10-05T08:58:21.963Z,241.88
2022-10-05T08:59:21.836Z,230.62
2022-10-05T09:00:21.866Z,219.38
2022-10-05T09:01:22.040Z,213.75
2022-10-05T09:02:21.905Z,219.38
2022-10-05T09:03:21.831Z,236.25
2022-10-05T09:04:21.841Z,270.00
2022-10-05T09:05:21.778Z,230.62
2022-10-05T09:06:21.748Z,253.12
2022-10-05T09:07:21.754Z,241.88
2022-10-05T09:08:21.798Z,258.75
2022-10-05T09:09:21.743Z,270.00
2022-10-05T09:10:21.755Z,258.75
2022-10-05T09:11:21.769Z,258.75
2022-10-05T09:12:21.803Z,247.50
2022-10-05T09:13:21.822Z,247.50
2022-10-05T09:14:21.767Z,292.50
2022-10-05T09:15:25.766Z,236.25
2022-10-05T09:16:22.922Z,258.75
2022-10-05T09:17:21.733Z,247.50
2022-10-05T09:18:21.727Z,320.62
2022-10-05T09:19:21.767Z,247.50
2022-10-05T09:20:21.718Z,275.62
2022-10-05T09:21:21.768Z,275.62
2022-10-05T09:22:21.810Z,270.00
2022-10-05T09:23:21.700Z,275.62
2022-10-05T09:24:21.675Z,275.62
2022-10-05T09:25:21.588Z,275.62
2022-10-05T09:26:21.688Z,286.88
2022-10-05T09:27:21.684Z,275.62
2022-10-05T09:28:21.921Z,275.62
2022-10-05T09:29:21.633Z,275.62
2022-10-05T09:30:21.708Z,275.62
2022-10-05T09:31:21.698Z,270.00
2022-10-05T09:32:21.622Z,258.75
2022-10-05T09:33:21.619Z,258.75
2022-10-05T09:34:21.659Z,258.75
2022-10-05T09:35:21.773Z,253.12
2022-10-05T09:36:21.705Z,253.12
2022-10-05T09:37:21.635Z,270.00
2022-10-05T09:38:21.593Z,270.00
2022-10-05T09:39:21.582Z,253.12
2022-10-05T09:40:21.648Z,253.12
2022-10-05T09:41:21.604Z,253.12
2022-10-05T09:42:21.451Z,236.25
2022-10-05T09:43:21.465Z,230.62
2022-10-05T09:44:21.552Z,236.25
2022-10-05T09:45:21.718Z,225.00
2022-10-05T09:46:22.701Z,219.38
2022-10-05T09:47:21.439Z,219.38
2022-10-05T09:48:21.542Z,225.00
2022-10-05T09:49:21.578Z,225.00
2022-10-05T09:50:21.604Z,236.25
2022-10-05T09:51:21.612Z,225.00
2022-10-05T09:52:21.496Z,213.75
2022-10-05T09:53:21.548Z,219.38
2022-10-05T09:54:21.526Z,236.25
2022-10-05T09:55:21.445Z,230.62
2022-10-05T09:56:21.513Z,230.62
2022-10-05T09:57:21.604Z,219.38
2022-10-05T09:58:21.510Z,213.75
2022-10-05T09:59:21.435Z,213.75
2022-10-05T10:00:21.442Z,202.50
2022-10-05T10:01:33.085Z,196.88
2022-10-05T10:02:23.487Z,191.25
2022-10-05T10:03:21.409Z,196.88
2022-10-05T10:04:21.338Z,185.62
2022-10-05T10:05:21.399Z,180.00
2022-10-05T10:06:21.310Z,191.25
2022-10-05T10:07:21.355Z,202.50
2022-10-05T10:08:21.280Z,196.88
2022-10-05T10:09:21.331Z,202.50
2022-10-05T10:10:21.303Z,196.88
2022-10-05T10:11:21.364Z,180.00
2022-10-05T10:12:21.428Z,196.88
2022-10-05T10:13:21.409Z,213.75
2022-10-05T10:14:21.317Z,202.50
2022-10-05T10:15:21.438Z,213.75
2022-10-05T10:16:21.431Z,213.75
2022-10-05T10:17:21.323Z,208.12
2022-10-05T10:18:21.342Z,202.50
2022-10-05T10:19:21.251Z,213.75
2022-10-05T10:20:21.300Z,202.50
2022-10-05T10:21:21.176Z,208.12
2022-10-05T10:22:21.278Z,208.12
2022-10-05T10:23:21.218Z,208.12
2022-10-05T10:24:21.199Z,219.38
2022-10-05T10:25:21.284Z,236.25
2022-10-05T10:26:21.162Z,219.38
2022-10-05T10:27:21.302Z,225.00
2022-10-05T10:28:21.364Z,230.62
2022-10-05T10:29:21.295Z,241.88
2022-10-05T10:30:22.486Z,241.88
2022-10-05T10:31:21.274Z,247.50
2022-10-05T10:32:21.278Z,247.50
2022-10-05T10:33:21.240Z,241.88
2022-10-05T10:34:21.327Z,230.62
2022-10-05T10:35:21.401Z,236.25
2022-10-05T10:36:21.166Z,253.12
2022-10-05T10:37:21.175Z,247.50
2022-10-05T10:38:21.176Z,241.88
2022-10-05T10:39:21.177Z,236.25
2022-10-05T10:40:21.205Z,230.62
2022-10-05T10:41:21.169Z,236.25
2022-10-05T10:42:26.010Z,247.50
2022-10-05T10:43:23.219Z,253.12
2022-10-05T10:44:21.219Z,247.50
2022-10-05T10:45:21.172Z,241.88
2022-10-05T10:46:21.182Z,253.12
2022-10-05T10:47:21.088Z,264.38
2022-10-05T10:48:21.097Z,258.75
2022-10-05T10:49:21.078Z,247.50
2022-10-05T10:50:21.122Z,241.88
2022-10-05T10:51:20.969Z,247.50
2022-10-05T10:52:21.008Z,247.50
2022-10-05T10:53:21.013Z,247.50
2022-10-05T10:54:21.054Z,253.12
2022-10-05T10:55:21.109Z,258.75
2022-10-05T10:56:21.118Z,270.00
2022-10-05T10:57:21.145Z,292.50
2022-10-05T10:58:21.215Z,292.50
2022-10-05T10:59:21.023Z,286.88
2022-10-05T11:00:20.999Z,292.50
2022-10-05T11:01:21.519Z,298.12
2022-10-05T11:02:21.152Z,326.25
2022-10-05T11:03:20.975Z,303.75
2022-10-05T11:04:21.049Z,303.75
2022-10-05T11:05:21.030Z,298.12
2022-10-05T11:06:21.017Z,298.12
2022-10-05T11:07:21.023Z,309.38
2022-10-05T11:08:20.973Z,337.50
2022-10-05T11:09:20.988Z,343.12
2022-10-05T11:10:20.996Z,343.12
2022-10-05T11:11:20.992Z,326.25
2022-10-05T11:12:21.044Z,343.12
2022-10-05T11:13:21.005Z,354.38
2022-10-05T11:14:21.043Z,360.00
2022-10-05T11:15:20.937Z,337.50
2022-10-05T11:16:20.944Z,337.50
2022-10-05T11:17:21.980Z,331.88
2022-10-05T11:18:20.901Z,365.62
2022-10-05T11:19:20.906Z,343.12
2022-10-05T11:20:20.903Z,326.25
2022-10-05T11:21:20.872Z,337.50
2022-10-05T11:22:20.891Z,354.38
2022-10-05T11:23:20.946Z,376.88
2022-10-05T11:24:20.862Z,421.88
2022-10-05T11:25:20.995Z,393.75
2022-10-05T11:26:21.057Z,444.38
2022-10-05T11:28:20.879Z,388.12
2022-10-05T11:29:20.939Z,393.75
2022-10-05T11:30:20.916Z,393.75
2022-10-05T11:31:20.948Z,343.12
2022-10-05T11:32:20.822Z,343.12
2022-10-05T11:33:20.903Z,354.38
2022-10-05T11:34:20.834Z,348.75
2022-10-05T11:35:20.738Z,326.25
2022-10-05T11:36:20.911Z,354.38
2022-10-05T11:37:20.949Z,376.88
2022-10-05T11:38:20.767Z,348.75
2022-10-05T11:39:20.940Z,320.62
2022-10-05T11:40:20.937Z,348.75
2022-10-05T11:41:20.715Z,360.00
2022-10-05T11:42:20.868Z,343.12
2022-10-05T11:43:20.815Z,331.88
2022-10-05T11:44:20.920Z,326.25
2022-10-05T11:45:20.991Z,354.38
2022-10-05T11:46:20.749Z,354.38
2022-10-05T11:47:20.600Z,348.75
2022-10-05T11:48:20.665Z,343.12
2022-10-05T11:49:20.612Z,348.75
2022-10-05T11:50:20.646Z,365.62
2022-10-05T11:51:23.983Z,331.88
2022-10-05T11:52:21.814Z,360.00
2022-10-05T11:53:20.619Z,348.75
2022-10-05T11:54:21.638Z,326.25
2022-10-05T11:55:20.694Z,292.50
2022-10-05T11:56:20.634Z,270.00
2022-10-05T11:57:20.594Z,315.00
2022-10-05T11:58:20.621Z,315.00
2022-10-05T11:59:20.612Z,371.25
2022-10-05T12:00:20.582Z,405.00
2022-10-05T12:01:20.908Z,382.50
2022-10-05T12:02:20.688Z,405.00
2022-10-05T12:03:20.763Z,416.25
2022-10-05T12:04:20.586Z,405.00
2022-10-05T12:05:20.555Z,382.50
2022-10-05T12:06:20.708Z,371.25
2022-10-05T12:07:20.551Z,337.50
2022-10-05T12:08:20.461Z,382.50
2022-10-05T12:09:20.513Z,433.12
2022-10-05T12:10:20.606Z,382.50
2022-10-05T12:11:20.560Z,365.62
2022-10-05T12:12:20.453Z,371.25
2022-10-05T12:13:20.461Z,393.75
2022-10-05T12:14:20.409Z,337.50
2022-10-05T12:15:20.385Z,360.00
2022-10-05T12:16:20.442Z,315.00
2022-10-05T12:17:21.548Z,331.88
2022-10-05T12:18:20.371Z,421.88
2022-10-05T12:19:20.428Z,315.00
2022-10-05T12:20:20.476Z,309.38
2022-10-05T12:21:20.401Z,331.88
2022-10-05T12:22:20.633Z,371.25
2022-10-05T12:23:20.471Z,326.25
2022-10-05T12:24:25.945Z,410.62
2022-10-05T12:25:22.516Z,466.88
2022-10-05T12:26:20.445Z,382.50
2022-10-05T12:27:20.447Z,365.62
2022-10-05T12:28:20.499Z,360.00
2022-10-05T12:29:20.358Z,365.62
2022-10-05T12:30:20.349Z,461.25
2022-10-05T12:31:20.308Z,410.62
2022-10-05T12:32:20.277Z,405.00
2022-10-05T12:33:20.327Z,416.25
2022-10-05T12:34:20.229Z,483.75
2022-10-05T12:35:36.582Z,517.50
2022-10-05T12:36:22.223Z,478.12
2022-10-05T12:37:20.303Z,444.38
2022-10-05T12:38:20.221Z,416.25
2022-10-05T12:39:20.201Z,427.50
2022-10-05T12:40:20.211Z,478.12
2022-10-05T12:41:20.287Z,596.25
2022-10-05T12:42:20.359Z,601.88
2022-10-05T12:43:20.292Z,815.62
2022-10-05T12:44:20.276Z,973.12
2022-10-05T12:45:20.277Z,978.75
2022-10-05T12:46:20.343Z,1006.88
2022-10-05T12:47:20.239Z,911.25
2022-10-05T12:48:20.326Z,900.00
2022-10-05T12:49:20.259Z,956.25
2022-10-05T12:50:20.320Z,838.12
2022-10-05T12:51:20.208Z,961.88
2022-10-05T12:52:20.167Z,1091.25
2022-10-05T12:53:20.184Z,1051.88